sensor_id;sensor_type;location;lat;lon;timestamp;pressure;altitude;pressure_sealevel;temperature;humidity
49827;BME280;35715;51.570;6.036;2023-12-20T00:01:50;101420.78;;;8.49;100.00
49827;BME280;35715;51.570;6.036;2023-12-20T00:04:15;101424.50;;;8.42;100.00
49827;BME280;35715;51.570;6.036;2023-12-20T00:06:40;101433.31;;;8.35;100.00
49827;BME280;35715;51.570;6.036;2023-12-20T00:09:06;101434.25;;;8.36;100.00
49827;BME280;35715;51.570;6.036;2023-12-20T00:11:31;101434.19;;;8.45;100.00
49827;BME280;35715;51.570;6.036;2023-12-20T00:13:56;101430.19;;;8.48;100.00
49827;BME280;35715;51.570;6.036;2023-12-20T00:16:22;101438.28;;;8.53;100.00
49827;BME280;35715;51.570;6.036;2023-12-20T00:18:47;101437.53;;;8.54;100.00
49827;BME280;35715;51.570;6.036;2023-12-20T00:21:12;101440.38;;;8.57;100.00
49827;BME280;35715;51.570;6.036;2023-12-20T00:23:38;101449.09;;;8.59;100.00
49827;BME280;35715;51.570;6.036;2023-12-20T00:26:03;101453.50;;;8.60;100.00
49827;BME280;35715;51.570;6.036;2023-12-20T00:28:28;101450.00;;;8.60;100.00
49827;BME280;35715;51.570;6.036;2023-12-20T00:30:54;101448.31;;;8.50;100.00
49827;BME280;35715;51.570;6.036;2023-12-20T00:33:22;101444.41;;;8.34;100.00
49827;BME280;35715;51.570;6.036;2023-12-20T00:35:47;101452.72;;;8.22;100.00
49827;BME280;35715;51.570;6.036;2023-12-20T00:38:13;101443.31;;;8.12;100.00
49827;BME280;35715;51.570;6.036;2023-12-20T00:40:38;101440.09;;;8.04;100.00
49827;BME280;35715;51.570;6.036;2023-12-20T00:43:03;101434.16;;;7.95;100.00
49827;BME280;35715;51.570;6.036;2023-12-20T00:45:29;101436.94;;;7.88;100.00
49827;BME280;35715;51.570;6.036;2023-12-20T00:47:54;101433.97;;;7.83;100.00
49827;BME280;35715;51.570;6.036;2023-12-20T00:50:20;101435.19;;;7.78;100.00
49827;BME280;35715;51.570;6.036;2023-12-20T00:52:47;101438.03;;;7.71;100.00
49827;BME280;35715;51.570;6.036;2023-12-20T00:55:12;101435.19;;;7.68;100.00
49827;BME280;35715;51.570;6.036;2023-12-20T00:57:37;101447.59;;;7.63;100.00
49827;BME280;35715;51.570;6.036;2023-12-20T01:00:06;101429.19;;;7.58;100.00
49827;BME280;35715;51.570;6.036;2023-12-20T01:02:31;101431.75;;;7.58;100.00
49827;BME280;35715;51.570;6.036;2023-12-20T01:04:57;101431.63;;;7.57;100.00
49827;BME280;35715;51.570;6.036;2023-12-20T01:07:22;101427.91;;;7.53;100.00
49827;BME280;35715;51.570;6.036;2023-12-20T01:09:48;101433.38;;;7.47;100.00
49827;BME280;35715;51.570;6.036;2023-12-20T01:12:13;101432.22;;;7.44;100.00
49827;BME280;35715;51.570;6.036;2023-12-20T01:14:38;101431.19;;;7.42;100.00
49827;BME280;35715;51.570;6.036;2023-12-20T01:17:04;101428.97;;;7.36;100.00
49827;BME280;35715;51.570;6.036;2023-12-20T01:19:30;101433.03;;;7.34;100.00
49827;BME280;35715;51.570;6.036;2023-12-20T01:21:55;101443.81;;;7.30;100.00
49827;BME280;35715;51.570;6.036;2023-12-20T01:24:20;101441.72;;;7.26;100.00
49827;BME280;35715;51.570;6.036;2023-12-20T01:26:46;101444.78;;;7.22;100.00
49827;BME280;35715;51.570;6.036;2023-12-20T01:29:11;101442.84;;;7.19;100.00
49827;BME280;35715;51.570;6.036;2023-12-20T01:31:37;101443.31;;;7.15;100.00
49827;BME280;35715;51.570;6.036;2023-12-20T01:34:02;101448.19;;;7.12;100.00
49827;BME280;35715;51.570;6.036;2023-12-20T01:36:28;101448.03;;;7.10;100.00
49827;BME280;35715;51.570;6.036;2023-12-20T01:38:54;101447.91;;;7.09;100.00
49827;BME280;35715;51.570;6.036;2023-12-20T01:41:19;101444.78;;;7.03;100.00
49827;BME280;35715;51.570;6.036;2023-12-20T01:43:44;101443.84;;;7.02;100.00
49827;BME280;35715;51.570;6.036;2023-12-20T01:46:10;101449.63;;;7.00;100.00
49827;BME280;35715;51.570;6.036;2023-12-20T01:48:35;101457.94;;;6.97;100.00
49827;BME280;35715;51.570;6.036;2023-12-20T01:51:01;101459.34;;;6.93;100.00
49827;BME280;35715;51.570;6.036;2023-12-20T01:53:27;101461.91;;;6.93;100.00
49827;BME280;35715;51.570;6.036;2023-12-20T01:55:55;101463.69;;;6.95;100.00
49827;BME280;35715;51.570;6.036;2023-12-20T01:58:23;101457.06;;;6.97;100.00
49827;BME280;35715;51.570;6.036;2023-12-20T02:00:49;101463.78;;;7.05;100.00
49827;BME280;35715;51.570;6.036;2023-12-20T02:03:16;101458.59;;;7.14;100.00
49827;BME280;35715;51.570;6.036;2023-12-20T02:05:42;101449.34;;;7.16;100.00
49827;BME280;35715;51.570;6.036;2023-12-20T02:08:09;101457.03;;;7.16;100.00
49827;BME280;35715;51.570;6.036;2023-12-20T02:10:34;101452.84;;;7.16;100.00
49827;BME280;35715;51.570;6.036;2023-12-20T02:13:00;101454.34;;;7.14;100.00
49827;BME280;35715;51.570;6.036;2023-12-20T02:15:25;101457.69;;;7.13;100.00
49827;BME280;35715;51.570;6.036;2023-12-20T02:17:50;101458.88;;;7.17;100.00
49827;BME280;35715;51.570;6.036;2023-12-20T02:20:16;101459.13;;;7.20;100.00
49827;BME280;35715;51.570;6.036;2023-12-20T02:22:44;101449.28;;;7.24;100.00
49827;BME280;35715;51.570;6.036;2023-12-20T02:25:10;101451.25;;;7.27;100.00
49827;BME280;35715;51.570;6.036;2023-12-20T02:27:36;101457.97;;;7.16;100.00
49827;BME280;35715;51.570;6.036;2023-12-20T02:30:04;101448.78;;;7.09;100.00
49827;BME280;35715;51.570;6.036;2023-12-20T02:32:30;101452.47;;;7.03;100.00
49827;BME280;35715;51.570;6.036;2023-12-20T02:34:56;101449.63;;;7.00;100.00
49827;BME280;35715;51.570;6.036;2023-12-20T02:37:21;101445.25;;;6.99;100.00
49827;BME280;35715;51.570;6.036;2023-12-20T02:39:47;101445.59;;;6.93;100.00
49827;BME280;35715;51.570;6.036;2023-12-20T02:42:12;101443.53;;;6.89;100.00
49827;BME280;35715;51.570;6.036;2023-12-20T02:44:37;101446.56;;;6.85;100.00
49827;BME280;35715;51.570;6.036;2023-12-20T02:47:04;101437.66;;;6.81;100.00
49827;BME280;35715;51.570;6.036;2023-12-20T02:49:29;101445.06;;;6.78;100.00
49827;BME280;35715;51.570;6.036;2023-12-20T02:51:54;101450.06;;;6.77;100.00
49827;BME280;35715;51.570;6.036;2023-12-20T02:54:20;101449.91;;;6.75;100.00
49827;BME280;35715;51.570;6.036;2023-12-20T02:56:45;101447.06;;;6.72;100.00
49827;BME280;35715;51.570;6.036;2023-12-20T02:59:11;101445.28;;;6.71;100.00
49827;BME280;35715;51.570;6.036;2023-12-20T03:01:42;101436.53;;;6.69;100.00
49827;BME280;35715;51.570;6.036;2023-12-20T03:04:10;101437.22;;;6.77;100.00
49827;BME280;35715;51.570;6.036;2023-12-20T03:06:35;101436.16;;;6.83;100.00
49827;BME280;35715;51.570;6.036;2023-12-20T03:09:01;101439.47;;;6.82;100.00
49827;BME280;35715;51.570;6.036;2023-12-20T03:11:27;101442.50;;;6.78;100.00
49827;BME280;35715;51.570;6.036;2023-12-20T03:13:53;101442.88;;;6.72;100.00
49827;BME280;35715;51.570;6.036;2023-12-20T03:16:18;101440.31;;;6.72;100.00
49827;BME280;35715;51.570;6.036;2023-12-20T03:18:43;101431.53;;;6.70;100.00
49827;BME280;35715;51.570;6.036;2023-12-20T03:21:09;101434.59;;;6.66;100.00
49827;BME280;35715;51.570;6.036;2023-12-20T03:23:34;101438.66;;;6.64;100.00
49827;BME280;35715;51.570;6.036;2023-12-20T03:25:59;101434.19;;;6.62;100.00
49827;BME280;35715;51.570;6.036;2023-12-20T03:28:26;101431.63;;;6.62;100.00
49827;BME280;35715;51.570;6.036;2023-12-20T03:30:51;101422.84;;;6.60;100.00
49827;BME280;35715;51.570;6.036;2023-12-20T03:33:17;101430.56;;;6.60;100.00
49827;BME280;35715;51.570;6.036;2023-12-20T03:35:42;101418.34;;;6.57;100.00
49827;BME280;35715;51.570;6.036;2023-12-20T03:38:09;101428.59;;;6.57;100.00
49827;BME280;35715;51.570;6.036;2023-12-20T03:40:38;101429.22;;;6.54;100.00
49827;BME280;35715;51.570;6.036;2023-12-20T03:43:03;101425.59;;;6.52;100.00
49827;BME280;35715;51.570;6.036;2023-12-20T03:45:29;101432.41;;;6.52;100.00
49827;BME280;35715;51.570;6.036;2023-12-20T03:47:54;101427.13;;;6.50;100.00
49827;BME280;35715;51.570;6.036;2023-12-20T03:50:24;101429.69;;;6.50;100.00
49827;BME280;35715;51.570;6.036;2023-12-20T03:52:50;101422.00;;;6.50;100.00
49827;BME280;35715;51.570;6.036;2023-12-20T03:55:15;101416.13;;;6.51;100.00
49827;BME280;35715;51.570;6.036;2023-12-20T03:57:40;101419.59;;;6.52;100.00
49827;BME280;35715;51.570;6.036;2023-12-20T04:00:09;101413.44;;;6.50;100.00
49827;BME280;35715;51.570;6.036;2023-12-20T04:02:39;101417.63;;;6.49;100.00
49827;BME280;35715;51.570;6.036;2023-12-20T04:05:05;101419.91;;;6.46;100.00
49827;BME280;35715;51.570;6.036;2023-12-20T04:07:31;101420.69;;;6.45;100.00
49827;BME280;35715;51.570;6.036;2023-12-20T04:10:00;101436.81;;;6.44;100.00
49827;BME280;35715;51.570;6.036;2023-12-20T04:12:27;101432.44;;;6.43;100.00
49827;BME280;35715;51.570;6.036;2023-12-20T04:14:52;101426.28;;;6.41;100.00
49827;BME280;35715;51.570;6.036;2023-12-20T04:17:18;101431.41;;;6.41;100.00
49827;BME280;35715;51.570;6.036;2023-12-20T04:19:43;101427.31;;;6.43;100.00
49827;BME280;35715;51.570;6.036;2023-12-20T04:22:11;101418.41;;;6.48;100.00
49827;BME280;35715;51.570;6.036;2023-12-20T04:24:40;101413.53;;;6.60;100.00
49827;BME280;35715;51.570;6.036;2023-12-20T04:27:07;101416.66;;;6.66;100.00
49827;BME280;35715;51.570;6.036;2023-12-20T04:29:33;101416.56;;;6.75;100.00
49827;BME280;35715;51.570;6.036;2023-12-20T04:31:58;101413.69;;;6.81;100.00
49827;BME280;35715;51.570;6.036;2023-12-20T04:34:24;101410.03;;;6.87;100.00
49827;BME280;35715;51.570;6.036;2023-12-20T04:36:49;101407.75;;;6.90;100.00
49827;BME280;35715;51.570;6.036;2023-12-20T04:39:15;101416.63;;;6.94;100.00
49827;BME280;35715;51.570;6.036;2023-12-20T04:41:40;101419.31;;;6.96;100.00
49827;BME280;35715;51.570;6.036;2023-12-20T04:44:07;101416.75;;;6.96;100.00
49827;BME280;35715;51.570;6.036;2023-12-20T04:46:32;101423.84;;;6.98;100.00
49827;BME280;35715;51.570;6.036;2023-12-20T04:48:58;101421.69;;;7.03;100.00
49827;BME280;35715;51.570;6.036;2023-12-20T04:51:33;101412.44;;;7.05;100.00
49827;BME280;35715;51.570;6.036;2023-12-20T04:53:59;101417.88;;;7.08;100.00
49827;BME280;35715;51.570;6.036;2023-12-20T04:56:24;101416.19;;;7.08;100.00
49827;BME280;35715;51.570;6.036;2023-12-20T04:58:49;101426.91;;;7.13;100.00
49827;BME280;35715;51.570;6.036;2023-12-20T05:01:15;101421.91;;;7.15;100.00
49827;BME280;35715;51.570;6.036;2023-12-20T05:03:40;101421.25;;;7.17;100.00
49827;BME280;35715;51.570;6.036;2023-12-20T05:06:09;101417.94;;;7.18;100.00
49827;BME280;35715;51.570;6.036;2023-12-20T05:08:35;101414.63;;;7.19;100.00
49827;BME280;35715;51.570;6.036;2023-12-20T05:11:00;101418.97;;;7.20;100.00
49827;BME280;35715;51.570;6.036;2023-12-20T05:13:29;101416.41;;;7.20;100.00
49827;BME280;35715;51.570;6.036;2023-12-20T05:15:54;101414.09;;;7.23;100.00
49827;BME280;35715;51.570;6.036;2023-12-20T05:18:20;101413.09;;;7.21;100.00
49827;BME280;35715;51.570;6.036;2023-12-20T05:20:46;101419.09;;;7.22;100.00
49827;BME280;35715;51.570;6.036;2023-12-20T05:23:11;101408.56;;;7.19;100.00
49827;BME280;35715;51.570;6.036;2023-12-20T05:25:38;101406.91;;;7.19;100.00
49827;BME280;35715;51.570;6.036;2023-12-20T05:28:04;101409.63;;;7.21;100.00
49827;BME280;35715;51.570;6.036;2023-12-20T05:30:29;101405.72;;;7.16;100.00
49827;BME280;35715;51.570;6.036;2023-12-20T05:32:54;101397.88;;;7.14;100.00
49827;BME280;35715;51.570;6.036;2023-12-20T05:35:20;101403.16;;;7.16;100.00
49827;BME280;35715;51.570;6.036;2023-12-20T05:37:47;101400.13;;;7.20;100.00
49827;BME280;35715;51.570;6.036;2023-12-20T05:40:12;101392.28;;;7.18;100.00
49827;BME280;35715;51.570;6.036;2023-12-20T05:42:38;101399.84;;;7.17;100.00
49827;BME280;35715;51.570;6.036;2023-12-20T05:45:04;101397.00;;;7.14;100.00
49827;BME280;35715;51.570;6.036;2023-12-20T05:47:30;101387.91;;;7.17;100.00
49827;BME280;35715;51.570;6.036;2023-12-20T05:49:55;101397.13;;;7.15;100.00
49827;BME280;35715;51.570;6.036;2023-12-20T05:52:20;101397.28;;;7.17;100.00
49827;BME280;35715;51.570;6.036;2023-12-20T05:54:49;101395.59;;;7.17;100.00
49827;BME280;35715;51.570;6.036;2023-12-20T05:57:14;101399.69;;;7.15;100.00
49827;BME280;35715;51.570;6.036;2023-12-20T05:59:39;101392.00;;;7.15;100.00
49827;BME280;35715;51.570;6.036;2023-12-20T06:02:05;101402.25;;;7.15;100.00
49827;BME280;35715;51.570;6.036;2023-12-20T06:04:31;101401.38;;;7.15;100.00
49827;BME280;35715;51.570;6.036;2023-12-20T06:06:56;101409.06;;;7.15;100.00
49827;BME280;35715;51.570;6.036;2023-12-20T06:09:21;101410.25;;;7.18;100.00
49827;BME280;35715;51.570;6.036;2023-12-20T06:11:47;101408.84;;;7.22;100.00
49827;BME280;35715;51.570;6.036;2023-12-20T06:14:12;101416.41;;;7.20;100.00
49827;BME280;35715;51.570;6.036;2023-12-20T06:16:37;101433.13;;;7.25;100.00
49827;BME280;35715;51.570;6.036;2023-12-20T06:19:03;101426.47;;;7.27;100.00
49827;BME280;35715;51.570;6.036;2023-12-20T06:21:28;101422.34;;;7.29;100.00
49827;BME280;35715;51.570;6.036;2023-12-20T06:23:54;101429.44;;;7.32;100.00
49827;BME280;35715;51.570;6.036;2023-12-20T06:26:20;101433.31;;;7.37;100.00
49827;BME280;35715;51.570;6.036;2023-12-20T06:28:45;101434.72;;;7.34;100.00
49827;BME280;35715;51.570;6.036;2023-12-20T06:31:11;101434.31;;;7.29;100.00
49827;BME280;35715;51.570;6.036;2023-12-20T06:33:36;101441.66;;;7.35;100.00
49827;BME280;35715;51.570;6.036;2023-12-20T06:36:07;101432.16;;;7.34;100.00
49827;BME280;35715;51.570;6.036;2023-12-20T06:38:33;101419.03;;;7.31;100.00
49827;BME280;35715;51.570;6.036;2023-12-20T06:40:58;101418.69;;;7.36;100.00
49827;BME280;35715;51.570;6.036;2023-12-20T06:43:24;101411.47;;;7.32;100.00
49827;BME280;35715;51.570;6.036;2023-12-20T06:45:49;101408.28;;;7.35;100.00
49827;BME280;35715;51.570;6.036;2023-12-20T06:48:16;101411.41;;;7.41;100.00
49827;BME280;35715;51.570;6.036;2023-12-20T06:50:41;101409.47;;;7.38;100.00
49827;BME280;35715;51.570;6.036;2023-12-20T06:53:09;101417.50;;;7.33;100.00
49827;BME280;35715;51.570;6.036;2023-12-20T06:55:35;101410.88;;;7.35;100.00
49827;BME280;35715;51.570;6.036;2023-12-20T06:58:03;101407.66;;;7.37;100.00
49827;BME280;35715;51.570;6.036;2023-12-20T07:00:28;101410.06;;;7.36;100.00
49827;BME280;35715;51.570;6.036;2023-12-20T07:02:54;101403.91;;;7.34;100.00
49827;BME280;35715;51.570;6.036;2023-12-20T07:05:19;101408.28;;;7.35;100.00
49827;BME280;35715;51.570;6.036;2023-12-20T07:07:45;101411.28;;;7.39;100.00
49827;BME280;35715;51.570;6.036;2023-12-20T07:10:11;101400.59;;;7.35;100.00
49827;BME280;35715;51.570;6.036;2023-12-20T07:12:36;101401.00;;;7.39;100.00
49827;BME280;35715;51.570;6.036;2023-12-20T07:15:02;101409.88;;;7.43;100.00
49827;BME280;35715;51.570;6.036;2023-12-20T07:17:28;101411.53;;;7.42;100.00
49827;BME280;35715;51.570;6.036;2023-12-20T07:19:53;101401.75;;;7.38;100.00
49827;BME280;35715;51.570;6.036;2023-12-20T07:22:19;101401.28;;;7.42;100.00
49827;BME280;35715;51.570;6.036;2023-12-20T07:24:44;101411.69;;;7.44;100.00
49827;BME280;35715;51.570;6.036;2023-12-20T07:27:19;101413.63;;;7.46;100.00
49827;BME280;35715;51.570;6.036;2023-12-20T07:29:52;101398.72;;;7.42;100.00
49827;BME280;35715;51.570;6.036;2023-12-20T07:32:18;101412.28;;;7.41;100.00
49827;BME280;35715;51.570;6.036;2023-12-20T07:34:44;101399.47;;;7.41;100.00
49827;BME280;35715;51.570;6.036;2023-12-20T07:37:21;101414.88;;;7.41;100.00
49827;BME280;35715;51.570;6.036;2023-12-20T07:39:47;101414.72;;;7.40;100.00
49827;BME280;35715;51.570;6.036;2023-12-20T07:42:12;101406.13;;;7.39;100.00
49827;BME280;35715;51.570;6.036;2023-12-20T07:44:37;101397.53;;;7.39;100.00
49827;BME280;35715;51.570;6.036;2023-12-20T07:47:03;101404.03;;;7.35;100.00
49827;BME280;35715;51.570;6.036;2023-12-20T07:49:30;101406.00;;;7.38;100.00
49827;BME280;35715;51.570;6.036;2023-12-20T07:51:55;101421.69;;;7.41;100.00
49827;BME280;35715;51.570;6.036;2023-12-20T07:54:21;101419.09;;;7.41;100.00
49827;BME280;35715;51.570;6.036;2023-12-20T07:56:46;101415.66;;;7.40;100.00
49827;BME280;35715;51.570;6.036;2023-12-20T07:59:12;101417.28;;;7.40;100.00
49827;BME280;35715;51.570;6.036;2023-12-20T08:01:37;101413.97;;;7.41;100.00
49827;BME280;35715;51.570;6.036;2023-12-20T08:04:03;101405.66;;;7.43;100.00
49827;BME280;35715;51.570;6.036;2023-12-20T08:06:28;101407.28;;;7.43;100.00
49827;BME280;35715;51.570;6.036;2023-12-20T08:08:53;101394.31;;;7.41;100.00
49827;BME280;35715;51.570;6.036;2023-12-20T08:11:19;101412.44;;;7.43;100.00
49827;BME280;35715;51.570;6.036;2023-12-20T08:13:44;101415.00;;;7.43;100.00
49827;BME280;35715;51.570;6.036;2023-12-20T08:16:10;101411.41;;;7.41;100.00
49827;BME280;35715;51.570;6.036;2023-12-20T08:18:38;101416.81;;;7.44;100.00
49827;BME280;35715;51.570;6.036;2023-12-20T08:21:03;101424.66;;;7.45;100.00
49827;BME280;35715;51.570;6.036;2023-12-20T08:23:29;101428.38;;;7.49;100.00
49827;BME280;35715;51.570;6.036;2023-12-20T08:25:54;101417.09;;;7.47;100.00
49827;BME280;35715;51.570;6.036;2023-12-20T08:28:19;101422.22;;;7.47;100.00
49827;BME280;35715;51.570;6.036;2023-12-20T08:30:45;101434.56;;;7.51;100.00
49827;BME280;35715;51.570;6.036;2023-12-20T08:33:10;101426.63;;;7.58;100.00
49827;BME280;35715;51.570;6.036;2023-12-20T08:35:45;101426.59;;;7.48;100.00
49827;BME280;35715;51.570;6.036;2023-12-20T08:38:10;101435.34;;;7.50;100.00
49827;BME280;35715;51.570;6.036;2023-12-20T08:40:37;101439.34;;;7.57;100.00
49827;BME280;35715;51.570;6.036;2023-12-20T08:43:03;101436.91;;;7.58;100.00
49827;BME280;35715;51.570;6.036;2023-12-20T08:45:28;101432.16;;;7.63;100.00
49827;BME280;35715;51.570;6.036;2023-12-20T08:47:54;101432.47;;;7.66;100.00
49827;BME280;35715;51.570;6.036;2023-12-20T08:50:19;101417.81;;;7.65;100.00
49827;BME280;35715;51.570;6.036;2023-12-20T08:52:44;101423.72;;;7.64;100.00
49827;BME280;35715;51.570;6.036;2023-12-20T08:55:13;101416.16;;;7.66;100.00
49827;BME280;35715;51.570;6.036;2023-12-20T08:57:40;101414.78;;;7.69;100.00
49827;BME280;35715;51.570;6.036;2023-12-20T09:00:06;101403.97;;;7.73;100.00
49827;BME280;35715;51.570;6.036;2023-12-20T09:02:32;101406.94;;;7.78;100.00
49827;BME280;35715;51.570;6.036;2023-12-20T09:05:01;101395.50;;;7.74;100.00
49827;BME280;35715;51.570;6.036;2023-12-20T09:07:27;101395.03;;;7.78;100.00
49827;BME280;35715;51.570;6.036;2023-12-20T09:09:57;101408.91;;;7.80;100.00
49827;BME280;35715;51.570;6.036;2023-12-20T09:12:23;101390.28;;;7.83;100.00
49827;BME280;35715;51.570;6.036;2023-12-20T09:14:49;101397.72;;;7.80;100.00
49827;BME280;35715;51.570;6.036;2023-12-20T09:17:16;101381.38;;;7.79;100.00
49827;BME280;35715;51.570;6.036;2023-12-20T09:19:42;101388.47;;;7.82;100.00
49827;BME280;35715;51.570;6.036;2023-12-20T09:22:09;101400.03;;;7.87;100.00
49827;BME280;35715;51.570;6.036;2023-12-20T09:24:34;101399.41;;;7.90;100.00
49827;BME280;35715;51.570;6.036;2023-12-20T09:27:00;101389.28;;;7.91;100.00
49827;BME280;35715;51.570;6.036;2023-12-20T09:29:25;101395.47;;;7.93;100.00
49827;BME280;35715;51.570;6.036;2023-12-20T09:31:53;101393.03;;;7.95;100.00
49827;BME280;35715;51.570;6.036;2023-12-20T09:34:18;101407.66;;;7.96;100.00
49827;BME280;35715;51.570;6.036;2023-12-20T09:36:44;101413.59;;;7.95;100.00
49827;BME280;35715;51.570;6.036;2023-12-20T09:39:16;101416.28;;;7.96;100.00
49827;BME280;35715;51.570;6.036;2023-12-20T09:41:51;101409.06;;;7.92;100.00
49827;BME280;35715;51.570;6.036;2023-12-20T09:44:21;101401.63;;;7.95;100.00
49827;BME280;35715;51.570;6.036;2023-12-20T09:46:49;101416.28;;;7.96;100.00
49827;BME280;35715;51.570;6.036;2023-12-20T09:49:16;101398.56;;;7.99;100.00
49827;BME280;35715;51.570;6.036;2023-12-20T09:51:42;101400.09;;;7.97;100.00
49827;BME280;35715;51.570;6.036;2023-12-20T09:54:08;101401.13;;;7.99;100.00
49827;BME280;35715;51.570;6.036;2023-12-20T09:56:34;101400.88;;;7.96;100.00
49827;BME280;35715;51.570;6.036;2023-12-20T09:59:00;101400.22;;;7.99;100.00
49827;BME280;35715;51.570;6.036;2023-12-20T10:01:25;101398.84;;;8.03;100.00
49827;BME280;35715;51.570;6.036;2023-12-20T10:03:54;101401.00;;;8.08;100.00
49827;BME280;35715;51.570;6.036;2023-12-20T10:06:20;101401.13;;;8.10;100.00
49827;BME280;35715;51.570;6.036;2023-12-20T10:08:46;101390.00;;;8.20;100.00
49827;BME280;35715;51.570;6.036;2023-12-20T10:11:11;101389.88;;;8.18;100.00
49827;BME280;35715;51.570;6.036;2023-12-20T10:13:40;101390.75;;;8.18;100.00
49827;BME280;35715;51.570;6.036;2023-12-20T10:16:12;101391.81;;;8.21;100.00
49827;BME280;35715;51.570;6.036;2023-12-20T10:18:38;101403.59;;;8.18;100.00
49827;BME280;35715;51.570;6.036;2023-12-20T10:21:06;101394.25;;;8.19;100.00
49827;BME280;35715;51.570;6.036;2023-12-20T10:23:35;101391.81;;;8.21;100.00
49827;BME280;35715;51.570;6.036;2023-12-20T10:26:01;101396.03;;;8.20;100.00
49827;BME280;35715;51.570;6.036;2023-12-20T10:28:33;101394.38;;;8.21;100.00
49827;BME280;35715;51.570;6.036;2023-12-20T10:30:59;101396.28;;;8.23;100.00
49827;BME280;35715;51.570;6.036;2023-12-20T10:33:25;101392.97;;;8.24;100.00
49827;BME280;35715;51.570;6.036;2023-12-20T10:35:52;101392.19;;;8.25;100.00
49827;BME280;35715;51.570;6.036;2023-12-20T10:38:17;101393.22;;;8.27;100.00
49827;BME280;35715;51.570;6.036;2023-12-20T10:40:45;101391.81;;;8.31;100.00
49827;BME280;35715;51.570;6.036;2023-12-20T10:43:11;101389.63;;;8.35;100.00
49827;BME280;35715;51.570;6.036;2023-12-20T10:45:36;101387.72;;;8.33;100.00
49827;BME280;35715;51.570;6.036;2023-12-20T10:48:02;101387.31;;;8.28;100.00
49827;BME280;35715;51.570;6.036;2023-12-20T10:50:37;101378.19;;;8.32;100.00
49827;BME280;35715;51.570;6.036;2023-12-20T10:53:03;101377.16;;;8.30;100.00
49827;BME280;35715;51.570;6.036;2023-12-20T10:55:32;101371.91;;;8.28;100.00
49827;BME280;35715;51.570;6.036;2023-12-20T10:58:01;101367.78;;;8.30;100.00
49827;BME280;35715;51.570;6.036;2023-12-20T11:00:29;101369.59;;;8.31;100.00
49827;BME280;35715;51.570;6.036;2023-12-20T11:03:00;101362.25;;;8.26;100.00
49827;BME280;35715;51.570;6.036;2023-12-20T11:05:38;101373.16;;;8.23;100.00
49827;BME280;35715;51.570;6.036;2023-12-20T11:08:22;101362.63;;;8.20;100.00
49827;BME280;35715;51.570;6.036;2023-12-20T11:11:08;101370.59;;;8.23;100.00
49827;BME280;35715;51.570;6.036;2023-12-20T11:13:40;101356.84;;;8.23;100.00
49827;BME280;35715;51.570;6.036;2023-12-20T11:16:09;101356.09;;;8.24;100.00
49827;BME280;35715;51.570;6.036;2023-12-20T11:18:35;101362.88;;;8.23;100.00
49827;BME280;35715;51.570;6.036;2023-12-20T11:21:02;101359.53;;;8.24;100.00
49827;BME280;35715;51.570;6.036;2023-12-20T11:23:34;101360.00;;;8.10;100.00
49827;BME280;35715;51.570;6.036;2023-12-20T11:26:00;101347.44;;;8.13;100.00
49827;BME280;35715;51.570;6.036;2023-12-20T11:28:26;101344.84;;;8.13;100.00
49827;BME280;35715;51.570;6.036;2023-12-20T11:30:54;101349.00;;;8.21;100.00
49827;BME280;35715;51.570;6.036;2023-12-20T11:33:25;101337.16;;;8.23;100.00
49827;BME280;35715;51.570;6.036;2023-12-20T11:35:51;101341.69;;;8.26;100.00
49827;BME280;35715;51.570;6.036;2023-12-20T11:38:20;101334.84;;;8.26;100.00
49827;BME280;35715;51.570;6.036;2023-12-20T11:40:48;101337.28;;;8.25;100.00
49827;BME280;35715;51.570;6.036;2023-12-20T11:46:03;101331.78;;;8.30;100.00
49827;BME280;35715;51.570;6.036;2023-12-20T11:48:37;101326.91;;;8.33;100.00
49827;BME280;35715;51.570;6.036;2023-12-20T11:51:02;101324.72;;;8.38;100.00
49827;BME280;35715;51.570;6.036;2023-12-20T11:53:30;101329.22;;;8.41;100.00
49827;BME280;35715;51.570;6.036;2023-12-20T11:55:58;101327.16;;;8.37;100.00
49827;BME280;35715;51.570;6.036;2023-12-20T11:58:25;101329.22;;;8.41;100.00
49827;BME280;35715;51.570;6.036;2023-12-20T12:00:52;101322.41;;;8.41;100.00
49827;BME280;35715;51.570;6.036;2023-12-20T12:03:17;101314.81;;;8.43;100.00
49827;BME280;35715;51.570;6.036;2023-12-20T12:05:43;101316.03;;;8.46;100.00
49827;BME280;35715;51.570;6.036;2023-12-20T12:08:08;101316.66;;;8.44;100.00
49827;BME280;35715;51.570;6.036;2023-12-20T12:10:33;101309.81;;;8.44;100.00
49827;BME280;35715;51.570;6.036;2023-12-20T12:12:59;101314.81;;;8.43;100.00
49827;BME280;35715;51.570;6.036;2023-12-20T12:15:26;101311.50;;;8.44;100.00
49827;BME280;35715;51.570;6.036;2023-12-20T12:17:56;101307.25;;;8.44;100.00
49827;BME280;35715;51.570;6.036;2023-12-20T12:20:22;101313.91;;;8.42;100.00
49827;BME280;35715;51.570;6.036;2023-12-20T12:23:06;101313.00;;;8.42;100.00
49827;BME280;35715;51.570;6.036;2023-12-20T12:25:34;101300.47;;;8.45;100.00
49827;BME280;35715;51.570;6.036;2023-12-20T12:28:00;101297.91;;;8.45;100.00
49827;BME280;35715;51.570;6.036;2023-12-20T12:30:26;101286.94;;;8.47;100.00
49827;BME280;35715;51.570;6.036;2023-12-20T12:32:53;101296.22;;;8.45;100.00
49827;BME280;35715;51.570;6.036;2023-12-20T12:35:19;101299.03;;;8.48;100.00
49827;BME280;35715;51.570;6.036;2023-12-20T12:37:44;101289.50;;;8.47;100.00
49827;BME280;35715;51.570;6.036;2023-12-20T12:40:12;101285.03;;;8.45;100.00
49827;BME280;35715;51.570;6.036;2023-12-20T12:42:38;101285.63;;;8.42;100.00
49827;BME280;35715;51.570;6.036;2023-12-20T12:45:04;101287.44;;;8.43;100.00
49827;BME280;35715;51.570;6.036;2023-12-20T12:47:30;101288.00;;;8.49;100.00
49827;BME280;35715;51.570;6.036;2023-12-20T12:49:56;101283.47;;;8.47;100.00